Time;durP1;ratioP1;P1;durP2;ratioP2;P2;SDS_P1;SDS_P2;PMS_P1;PMS_P2;Temp;Humidity;BMP_temperature;BMP_pressure;BME280_temperature;BME280_humidity;BME280_pressure;Samples;Min_cycle;Max_cycle;Signal;HPM_P1;HPM_P2
2022/12/18 00:00:11;;;;;;;38.33;12.53;;;;;;;-2.02;77.43;102237.31;2035998;29;20382;-68
2022/12/18 00:01:23;;;;;;;32.93;12.00;;;;;;;-2.03;77.29;102235.66;2035388;29;20307;-71
2022/12/18 00:02:28;;;;;;;30.53;11.47;;;;;;;-2.04;77.62;102228.75;2036494;29;20295;-69
2022/12/18 00:03:30;;;;;;;36.37;11.77;;;;;;;-2.05;77.51;102233.19;2035547;29;20287;-69
2022/12/18 00:04:32;;;;;;;30.10;11.40;;;;;;;-2.05;77.54;102235.00;2042707;29;21207;-70
2022/12/18 00:05:35;;;;;;;33.47;12.10;;;;;;;-2.05;77.63;102237.63;2037492;29;20858;-69
2022/12/18 00:06:38;;;;;;;37.20;12.00;;;;;;;-2.05;77.66;102241.06;2037897;29;20295;-69
2022/12/18 00:07:43;;;;;;;29.93;10.80;;;;;;;-2.03;77.79;102238.31;2037776;29;20357;-69
2022/12/18 00:08:46;;;;;;;44.27;12.13;;;;;;;-2.02;77.95;102240.78;2037924;29;20295;-69
2022/12/18 00:09:49;;;;;;;33.30;12.30;;;;;;;-1.98;78.04;102241.31;2031025;29;20291;-69
2022/12/18 00:10:52;;;;;;;36.67;11.77;;;;;;;-1.95;77.91;102241.00;2032377;29;20361;-68
2022/12/18 00:11:54;;;;;;;32.30;12.00;;;;;;;-1.94;78.10;102245.28;2043341;28;22386;-69
2022/12/18 00:12:57;;;;;;;38.57;11.70;;;;;;;-1.92;77.96;102244.16;2035160;29;20482;-69
2022/12/18 00:14:00;;;;;;;31.93;12.53;;;;;;;-1.91;77.87;102242.34;2028122;29;20303;-69
2022/12/18 00:15:05;;;;;;;34.80;11.40;;;;;;;-1.92;77.62;102240.69;2028366;29;20803;-70
2022/12/18 00:16:12;;;;;;;33.50;11.67;;;;;;;-1.91;77.94;102245.81;2020709;29;20297;-70
2022/12/18 00:17:15;;;;;;;37.00;13.73;;;;;;;-1.90;77.82;102238.72;2030189;29;20309;-69
2022/12/18 00:18:20;;;;;;;41.23;14.57;;;;;;;-1.91;78.09;102243.16;2044372;29;20596;-69
2022/12/18 00:19:23;;;;;;;50.77;16.27;;;;;;;-1.93;77.48;102241.66;2044316;29;20322;-69
2022/12/18 00:20:25;;;;;;;55.93;19.10;;;;;;;-1.99;77.49;102244.91;2044285;29;20298;-69
2022/12/18 00:21:29;;;;;;;65.87;19.37;;;;;;;-2.01;77.67;102239.00;2044009;29;20301;-70
2022/12/18 00:22:33;;;;;;;56.33;18.63;;;;;;;-2.03;77.56;102235.66;2034808;29;20303;-69
2022/12/18 00:23:38;;;;;;;64.23;20.50;;;;;;;-2.06;77.45;102238.63;2028095;29;20776;-69
2022/12/18 00:24:41;;;;;;;66.23;21.10;;;;;;;-2.05;77.41;102238.44;2032851;29;20295;-69
2022/12/18 00:25:46;;;;;;;69.10;21.67;;;;;;;-2.04;77.55;102240.13;2045032;29;20341;-69
2022/12/18 00:26:48;;;;;;;76.13;22.10;;;;;;;-2.01;77.68;102234.53;2035586;29;20295;-68
2022/12/18 00:27:51;;;;;;;79.20;23.67;;;;;;;-2.04;77.51;102228.75;2030171;29;20818;-69
2022/12/18 00:28:53;;;;;;;75.93;23.27;;;;;;;-2.05;77.17;102243.72;2021320;29;20308;-69
2022/12/18 00:29:57;;;;;;;70.33;22.40;;;;;;;-2.06;77.12;102241.25;2029161;29;20315;-69
2022/12/18 00:31:04;;;;;;;65.63;21.30;;;;;;;-2.07;77.13;102244.88;2028650;29;20342;-69
2022/12/18 00:32:08;;;;;;;59.97;21.33;;;;;;;-2.10;77.06;102236.28;2029336;29;20307;-69
2022/12/18 00:33:18;;;;;;;67.87;21.80;;;;;;;-2.13;77.00;102241.88;2035991;29;20361;-69
2022/12/18 00:34:21;;;;;;;68.83;21.90;;;;;;;-2.14;76.94;102240.22;2035475;29;20311;-69
2022/12/18 00:35:24;;;;;;;65.27;20.67;;;;;;;-2.16;76.89;102241.34;2035493;28;20299;-69
2022/12/18 00:36:31;;;;;;;68.70;21.13;;;;;;;-2.18;76.99;102249.38;2043931;29;20311;-69
2022/12/18 00:37:37;;;;;;;65.67;19.77;;;;;;;-2.17;77.28;102245.78;2043968;29;20612;-70
2022/12/18 00:38:40;;;;;;;72.27;21.17;;;;;;;-2.18;76.78;102249.38;2035043;29;20300;-70
2022/12/18 00:39:45;;;;;;;65.83;19.70;;;;;;;-2.18;76.98;102246.75;2028228;29;20319;-69
2022/12/18 00:40:48;;;;;;;52.00;18.30;;;;;;;-2.18;77.00;102245.94;2036037;29;20310;-69
2022/12/18 00:43:14;;;;;;;59.53;17.73;;;;;;;-2.15;77.02;102254.34;2035609;29;20288;-69
2022/12/18 00:44:19;;;;;;;53.37;16.53;;;;;;;-2.14;76.88;102247.31;2027866;29;20307;-69
2022/12/18 00:45:21;;;;;;;59.97;17.70;;;;;;;-2.18;76.71;102246.75;2036286;29;20426;-69
2022/12/18 00:46:24;;;;;;;48.80;16.23;;;;;;;-2.18;76.63;102253.84;2028377;29;20307;-70
2022/12/18 00:47:26;;;;;;;44.57;14.87;;;;;;;-2.20;76.74;102251.38;2027645;29;20304;-69
2022/12/18 00:48:28;;;;;;;54.53;16.07;;;;;;;-2.23;76.73;102251.66;2027711;29;20312;-69
2022/12/18 00:49:31;;;;;;;51.90;16.40;;;;;;;-2.27;76.55;102255.59;2027740;29;20304;-70
2022/12/18 00:50:34;;;;;;;45.43;14.70;;;;;;;-2.29;76.76;102248.81;2035304;29;20325;-70
2022/12/18 00:51:37;;;;;;;42.97;14.03;;;;;;;-2.26;76.56;102246.69;2035851;29;20372;-69
2022/12/18 00:52:40;;;;;;;38.07;12.07;;;;;;;-2.25;76.95;102250.97;2043097;29;20295;-69
2022/12/18 00:53:42;;;;;;;34.97;11.60;;;;;;;-2.26;76.53;102248.53;2043245;28;20294;-69
2022/12/18 00:54:49;;;;;;;38.87;12.70;;;;;;;-2.26;76.83;102249.34;2036723;29;20617;-69
2022/12/18 00:55:58;;;;;;;32.87;12.30;;;;;;;-2.24;76.66;102251.81;2031891;29;20304;-69
2022/12/18 00:57:00;;;;;;;33.93;11.03;;;;;;;-2.27;76.85;102250.31;2038209;29;20715;-69
2022/12/18 00:58:05;;;;;;;27.87;10.13;;;;;;;-2.29;76.95;102249.63;2035511;29;20657;-68
2022/12/18 00:59:08;;;;;;;28.97;10.77;;;;;;;-2.33;76.64;102250.94;2043964;29;20321;-69
2022/12/18 01:00:15;;;;;;;38.13;11.53;;;;;;;-2.35;76.89;102252.88;2044107;29;20371;-68
2022/12/18 01:01:18;;;;;;;38.27;13.87;;;;;;;-2.35;76.94;102263.41;2036515;29;20751;-69
2022/12/18 01:02:23;;;;;;;38.30;12.70;;;;;;;-2.38;76.86;102258.44;2037150;29;20367;-69
2022/12/18 01:03:27;;;;;;;34.20;11.27;;;;;;;-2.37;77.01;102262.72;2036481;29;20788;-69
2022/12/18 01:04:32;;;;;;;32.33;11.10;;;;;;;-2.36;76.99;102265.22;2029122;29;20335;-69
2022/12/18 01:05:35;;;;;;;28.87;10.53;;;;;;;-2.35;76.94;102260.78;2021914;29;20301;-69
2022/12/18 01:06:40;;;;;;;32.50;10.97;;;;;;;-2.35;76.96;102263.41;2030635;29;20306;-69
2022/12/18 01:07:44;;;;;;;37.20;11.53;;;;;;;-2.36;77.10;102261.78;2038952;28;20351;-69
2022/12/18 01:08:46;;;;;;;30.80;11.10;;;;;;;-2.37;76.96;102260.91;2029372;29;20389;-69
2022/12/18 01:09:49;;;;;;;31.33;11.13;;;;;;;-2.35;77.17;102264.25;2036387;29;20878;-69
2022/12/18 01:10:52;;;;;;;32.43;10.47;;;;;;;-2.32;77.19;102271.03;2033140;29;20660;-69
2022/12/18 01:11:54;;;;;;;37.20;13.13;;;;;;;-2.29;77.36;102268.09;2032866;29;20311;-69
2022/12/18 01:12:57;;;;;;;30.17;10.53;;;;;;;-2.25;77.42;102269.44;2033172;29;20315;-70
2022/12/18 01:14:00;;;;;;;24.57;10.10;;;;;;;-2.24;77.32;102267.63;2021071;29;20304;-70
2022/12/18 01:15:05;;;;;;;30.83;10.40;;;;;;;-2.27;77.07;102276.69;2029698;29;20296;-70
2022/12/18 01:16:10;;;;;;;27.83;9.70;;;;;;;-2.27;77.20;102270.56;2044214;29;20789;-69
2022/12/18 01:17:12;;;;;;;32.93;11.20;;;;;;;-2.28;77.41;102275.00;2043895;29;20620;-70
2022/12/18 01:18:15;;;;;;;26.30;10.13;;;;;;;-2.28;77.14;102269.72;2032752;29;20295;-70
2022/12/18 01:19:18;;;;;;;28.00;10.33;;;;;;;-2.26;77.33;102275.69;2025564;29;20657;-69
2022/12/18 01:20:24;;;;;;;33.33;10.90;;;;;;;-2.23;77.19;102274.56;2026488;29;20660;-70
2022/12/18 01:21:26;;;;;;;27.97;10.07;;;;;;;-2.23;77.48;102272.75;2030429;29;20315;-70
2022/12/18 01:22:32;;;;;;;25.10;9.27;;;;;;;-2.21;77.46;102281.31;2020970;29;20350;-70
2022/12/18 01:23:34;;;;;;;29.33;10.40;;;;;;;-2.18;77.53;102278.38;2024083;29;20292;-70
2022/12/18 01:24:37;;;;;;;30.77;10.80;;;;;;;-2.15;77.49;102278.06;2032237;29;20383;-69
2022/12/18 01:25:39;;;;;;;25.50;9.57;;;;;;;-2.13;77.61;102273.47;2042878;29;20318;-69
2022/12/18 01:26:49;;;;;;;25.70;9.57;;;;;;;-2.10;77.54;102282.91;2043392;29;20334;-68
2022/12/18 01:27:51;;;;;;;26.07;8.43;;;;;;;-2.07;77.67;102284.41;2035790;29;20295;-69
2022/12/18 01:28:54;;;;;;;29.10;9.83;;;;;;;-2.01;77.60;102286.44;2028772;29;20292;-68
2022/12/18 01:29:59;;;;;;;26.63;10.63;;;;;;;-1.98;77.52;102294.03;2028858;29;20307;-69
2022/12/18 01:31:18;;;;;;;31.47;12.17;;;;;;;-1.97;77.58;102287.78;2036677;29;20330;-69
2022/12/18 01:32:22;;;;;;;31.60;10.37;;;;;;;-1.96;77.43;102289.41;2027622;29;20308;-70
2022/12/18 01:33:26;;;;;;;29.97;9.97;;;;;;;-1.95;77.38;102285.81;2027741;29;21016;-69
2022/12/18 01:34:28;;;;;;;27.27;10.43;;;;;;;-1.95;77.38;102291.91;2043507;29;20297;-69
2022/12/18 01:35:31;;;;;;;30.17;10.13;;;;;;;-1.92;77.88;102283.69;2035353;29;20814;-69
2022/12/18 01:36:36;;;;;;;25.77;10.67;;;;;;;-1.80;77.58;102296.63;2029338;29;20350;-68
2022/12/18 01:37:44;;;;;;;26.47;9.37;;;;;;;-1.73;77.65;102295.03;2030240;29;20292;-69
2022/12/18 01:38:48;;;;;;;26.17;10.03;;;;;;;-1.66;77.66;102291.63;2036578;29;20313;-69
2022/12/18 01:39:55;;;;;;;30.90;10.97;;;;;;;-1.63;77.77;102288.69;2036492;29;20332;-70
2022/12/18 01:40:59;;;;;;;26.97;10.57;;;;;;;-1.60;77.34;102294.63;2021144;29;20295;-69
2022/12/18 01:42:11;;;;;;;33.73;10.83;;;;;;;-1.58;77.34;102293.47;2028845;29;20304;-69
2022/12/18 01:43:13;;;;;;;28.83;11.23;;;;;;;-1.53;77.23;102291.19;2044130;29;20314;-70
2022/12/18 01:45:10;;;;;;;28.03;9.87;;;;;;;-1.52;76.92;102294.66;2036117;29;20303;-69
2022/12/18 01:46:12;;;;;;;31.63;10.17;;;;;;;-1.55;76.76;102293.16;2018884;29;20288;-70
2022/12/18 01:47:40;;;;;;;29.77;10.27;;;;;;;-1.58;76.80;102293.47;2012275;29;20342;-70
2022/12/18 01:48:44;;;;;;;25.23;9.27;;;;;;;-1.57;77.21;102294.31;2021292;29;20308;-69
2022/12/18 01:49:49;;;;;;;33.83;11.50;;;;;;;-1.56;77.13;102288.06;2036323;29;20306;-70
2022/12/18 01:50:51;;;;;;;32.73;11.23;;;;;;;-1.57;77.11;102289.88;2044271;29;20663;-70
2022/12/18 01:51:54;;;;;;;32.07;11.40;;;;;;;-1.60;76.84;102289.34;2036190;29;20303;-69
2022/12/18 01:53:18;;;;;;;32.13;11.10;;;;;;;-1.59;76.81;102289.19;2028017;29;20308;-70
2022/12/18 01:54:22;;;;;;;37.13;12.37;;;;;;;-1.59;77.02;102288.38;2039145;29;20318;-70
2022/12/18 01:55:27;;;;;;;38.90;11.73;;;;;;;-1.58;76.81;102287.38;2044290;29;20295;-70
2022/12/18 01:56:30;;;;;;;33.67;11.87;;;;;;;-1.60;77.00;102284.91;2043961;29;20294;-70
2022/12/18 01:57:39;;;;;;;40.90;12.47;;;;;;;-1.58;76.88;102290.00;2035980;29;20296;-70
2022/12/18 01:58:50;;;;;;;40.30;12.83;;;;;;;-1.55;77.14;102292.34;2037378;29;20782;-70
2022/12/18 02:00:00;;;;;;;32.07;11.57;;;;;;;-1.51;76.98;102293.69;2043683;29;20306;-70
2022/12/18 02:01:23;;;;;;;29.07;9.77;;;;;;;-1.48;77.04;102288.94;2044425;29;20801;-69
2022/12/18 02:02:31;;;;;;;33.67;10.67;;;;;;;-1.46;76.94;102291.41;2036006;29;20314;-70
2022/12/18 02:03:37;;;;;;;32.33;10.88;;;;;;;-1.48;77.13;102294.22;2037036;29;20318;-70
2022/12/18 02:04:41;;;;;;;41.90;11.67;;;;;;;-1.50;77.13;102288.25;2036229;29;20051;-70
2022/12/18 02:06:04;;;;;;;36.73;10.73;;;;;;;-1.50;76.81;102292.72;2028645;29;20307;-70
2022/12/18 02:07:20;;;;;;;32.90;11.33;;;;;;;-1.50;76.79;102284.78;2031080;29;20338;-70
2022/12/18 02:08:22;;;;;;;31.47;10.70;;;;;;;-1.51;76.89;102288.44;2029900;29;20311;-69
2022/12/18 02:09:34;;;;;;;32.30;10.07;;;;;;;-1.52;76.82;102292.03;2020888;29;20297;-69
2022/12/18 02:10:35;;;;;;;32.00;10.70;;;;;;;-1.53;77.11;102293.03;2031037;29;20312;-69
2022/12/18 02:11:54;;;;;;;30.10;10.07;;;;;;;-1.51;77.10;102291.88;2038430;29;20299;-69
2022/12/18 02:13:26;;;;;;;28.92;10.80;;;;;;;-1.50;77.24;102290.06;2032338;29;20317;-70
2022/12/18 02:14:57;;;;;;;30.87;10.33;;;;;;;-1.48;77.14;102293.34;2024459;29;20055;-71
2022/12/18 02:16:16;;;;;;;36.83;9.37;;;;;;;-1.47;77.34;102300.31;2028023;29;20329;-70
2022/12/18 02:17:36;;;;;;;28.97;9.80;;;;;;;-1.50;77.03;102290.91;2038215;28;20346;-70
2022/12/18 02:18:41;;;;;;;26.30;9.90;;;;;;;-1.46;77.41;102304.59;2044327;29;20321;-71
2022/12/18 02:20:31;;;;;;;29.00;10.73;;;;;;;-1.41;77.32;102302.31;2028425;29;20063;-70
2022/12/18 02:21:54;;;;;;;25.77;10.17;;;;;;;-1.38;77.15;102303.84;2041578;29;20656;-71
2022/12/18 02:23:15;;;;;;;34.03;10.80;;;;;;;-1.37;77.02;102305.47;2035958;29;20298;-70
2022/12/18 02:24:40;;;;;;;29.73;9.90;;;;;;;-1.38;77.26;102307.28;2031609;29;20355;-70
2022/12/18 02:25:54;;;;;;;29.33;10.53;;;;;;;-1.34;77.44;102310.44;2038606;29;20307;-69
2022/12/18 02:27:04;;;;;;;26.40;9.57;;;;;;;-1.32;77.08;102309.31;2043736;29;20290;-69
2022/12/18 02:28:11;;;;;;;26.77;10.13;;;;;;;-1.34;77.05;102308.63;2037482;29;20306;-70
2022/12/18 02:29:22;;;;;;;25.40;9.60;;;;;;;-1.33;77.17;102306.81;2028252;29;20304;-69
2022/12/18 02:30:35;;;;;;;26.43;9.03;;;;;;;-1.31;77.47;102308.31;2030837;29;20975;-70
2022/12/18 02:31:47;;;;;;;27.50;9.55;;;;;;;-1.27;77.06;102312.28;2037704;29;20314;-70
2022/12/18 02:32:52;;;;;;;28.07;8.83;;;;;;;-1.24;77.31;102311.97;2043082;29;20055;-70
2022/12/18 02:34:01;;;;;;;27.60;9.07;;;;;;;-1.22;77.45;102315.28;2035857;29;20307;-69
2022/12/18 02:35:05;;;;;;;29.30;9.53;;;;;;;-1.23;77.46;102313.66;2038308;29;22277;-69
2022/12/18 02:36:13;;;;;;;31.57;10.30;;;;;;;-1.22;77.37;102312.66;2045087;28;20295;-69
2022/12/18 02:37:18;;;;;;;28.80;10.50;;;;;;;-1.22;77.08;102314.47;2045125;28;20343;-69
2022/12/18 02:38:20;;;;;;;29.63;10.53;;;;;;;-1.23;76.82;102321.56;2037318;29;20695;-70
2022/12/18 02:39:29;;;;;;;28.13;9.53;;;;;;;-1.22;77.09;102314.47;2038442;29;20306;-70
2022/12/18 02:40:38;;;;;;;27.40;9.83;;;;;;;-1.26;76.86;102313.97;2037744;29;20802;-70
2022/12/18 02:41:42;;;;;;;27.53;10.30;;;;;;;-1.27;77.21;102316.75;2029840;29;20335;-70
2022/12/18 02:42:49;;;;;;;28.73;10.20;;;;;;;-1.25;77.18;102320.88;2029209;29;20311;-69
2022/12/18 02:43:59;;;;;;;29.90;9.80;;;;;;;-1.23;77.56;102318.06;2030063;29;20676;-69
2022/12/18 02:45:07;;;;;;;21.93;8.87;;;;;;;-1.18;77.38;102321.06;2037962;29;20326;-69
2022/12/18 02:46:23;;;;;;;25.13;9.82;;;;;;;-1.09;77.44;102321.94;2037526;29;20644;-69
2022/12/18 02:47:32;;;;;;;26.33;9.60;;;;;;;-1.08;77.29;102316.50;2032835;29;20051;-68
2022/12/18 02:48:37;;;;;;;26.10;9.30;;;;;;;-1.01;77.42;102321.97;2031079;29;20295;-68
2022/12/18 02:49:55;;;;;;;25.40;8.43;;;;;;;-0.92;77.37;102321.03;2038135;29;20301;-69
2022/12/18 02:51:27;;;;;;;28.40;9.23;;;;;;;-0.87;77.31;102324.03;2037540;29;20683;-69
2022/12/18 02:53:05;;;;;;;27.73;9.90;;;;;;;-0.85;77.13;102327.34;2032991;29;20306;-69
2022/12/18 02:54:18;;;;;;;23.70;9.03;;;;;;;-0.88;76.92;102332.94;2045655;29;20294;-68
2022/12/18 02:55:30;;;;;;;25.40;8.93;;;;;;;-0.90;76.91;102323.50;2037372;29;20310;-69
2022/12/18 02:56:52;;;;;;;29.50;8.67;;;;;;;-0.93;76.71;102329.94;2031338;29;20319;-68
2022/12/18 02:58:02;;;;;;;27.93;8.50;;;;;;;-0.94;76.95;102325.66;2037179;29;20298;-69
2022/12/18 02:59:21;;;;;;;25.43;8.13;;;;;;;-0.94;77.04;102328.28;2038722;29;20675;-70
2022/12/18 03:00:41;;;;;;;23.73;8.20;;;;;;;-0.93;77.05;102327.28;2044127;28;20798;-69
2022/12/18 03:01:45;;;;;;;22.40;7.87;;;;;;;-0.90;77.04;102329.63;2037258;29;20039;-69
2022/12/18 03:02:54;;;;;;;24.30;8.23;;;;;;;-0.86;77.17;102325.66;2029547;29;20807;-69
2022/12/18 03:04:02;;;;;;;22.40;8.30;;;;;;;-0.80;77.19;102330.31;2038506;29;20310;-69
2022/12/18 03:05:50;;;;;;;29.90;8.80;;;;;;;-0.80;77.29;102332.13;2037492;29;20299;-69
2022/12/18 03:06:56;;;;;;;21.10;7.10;;;;;;;-0.81;77.17;102328.66;2019110;29;20300;-69
2022/12/18 03:08:07;;;;;;;25.20;7.77;;;;;;;-0.72;77.16;102337.44;2023169;29;20296;-69
2022/12/18 03:09:32;;;;;;;23.20;7.73;;;;;;;-0.67;77.15;102339.59;2033520;29;20308;-69
2022/12/18 03:10:41;;;;;;;23.13;7.78;;;;;;;-0.66;77.02;102333.31;2034053;29;20331;-69
2022/12/18 03:13:26;;;;;;;20.77;7.87;;;;;;;-0.72;76.59;102342.72;2044827;29;20051;-69
2022/12/18 03:14:32;;;;;;;21.50;7.60;;;;;;;-0.80;76.46;102343.50;2030187;29;20826;-68
2022/12/18 03:15:59;;;;;;;18.30;6.30;;;;;;;-0.83;76.73;102345.66;2023482;29;20304;-68
2022/12/18 03:17:09;;;;;;;18.43;7.40;;;;;;;-0.87;76.88;102339.88;2020915;29;20359;-68
2022/12/18 03:18:24;;;;;;;18.30;6.40;;;;;;;-0.89;76.65;102341.81;2028673;29;20311;-68
2022/12/18 03:19:32;;;;;;;21.93;7.60;;;;;;;-0.94;76.56;102339.69;2026825;29;20308;-69
2022/12/18 03:20:39;;;;;;;19.40;7.37;;;;;;;-0.99;76.67;102349.06;2028774;29;20303;-69
2022/12/18 03:21:45;;;;;;;20.37;7.23;;;;;;;-1.07;76.73;102349.00;2037440;29;20695;-69
2022/12/18 03:22:53;;;;;;;20.90;7.37;;;;;;;-1.09;77.13;102345.72;2030327;29;20664;-69
2022/12/18 03:23:59;;;;;;;18.27;7.03;;;;;;;-1.09;77.07;102343.88;2023000;29;20307;-69
2022/12/18 03:25:07;;;;;;;21.53;7.53;;;;;;;-1.09;77.10;102349.16;2038183;29;20310;-69
2022/12/18 03:26:12;;;;;;;22.93;7.23;;;;;;;-1.03;77.65;102355.63;2037314;29;20675;-69
2022/12/18 03:27:18;;;;;;;17.63;6.73;;;;;;;-1.03;77.40;102345.91;2037923;29;20291;-70
2022/12/18 03:28:22;;;;;;;25.63;6.70;;;;;;;-1.06;77.26;102348.84;2037364;29;20311;-70
2022/12/18 03:29:48;;;;;;;16.53;6.83;;;;;;;-1.08;77.69;102353.44;2037956;29;20363;-70
2022/12/18 03:30:59;;;;;;;16.93;6.60;;;;;;;-0.98;77.47;102359.47;2033960;29;20296;-70
2022/12/18 03:32:18;;;;;;;20.40;6.90;;;;;;;-0.93;77.45;102357.16;2034097;29;20300;-69
2022/12/18 03:33:28;;;;;;;22.38;7.38;;;;;;;-0.96;77.56;102361.94;2039787;29;20289;-69
2022/12/18 03:34:37;;;;;;;20.43;6.47;;;;;;;-0.97;77.40;102362.94;2043689;28;20114;-69
2022/12/18 03:35:43;;;;;;;17.90;6.27;;;;;;;-0.94;77.87;102362.63;2045102;29;20321;-69
2022/12/18 03:36:47;;;;;;;19.87;7.20;;;;;;;-0.89;77.98;102357.66;2037473;29;20295;-70
2022/12/18 03:37:50;;;;;;;14.33;5.73;;;;;;;-0.83;77.92;102359.69;2023749;29;20300;-70
2022/12/18 03:38:53;;;;;;;21.63;6.60;;;;;;;-0.83;77.41;102359.69;2024327;29;20312;-70
2022/12/18 03:40:02;;;;;;;18.63;5.67;;;;;;;-0.82;77.81;102358.72;2037649;29;20295;-70
2022/12/18 03:41:31;;;;;;;16.15;6.28;;;;;;;-0.81;77.48;102360.34;2036941;29;20299;-70
2022/12/18 03:43:00;;;;;;;21.37;6.13;;;;;;;-0.76;77.56;102358.06;2042867;29;20058;-71
2022/12/18 03:44:19;;;;;;;14.40;6.13;;;;;;;-0.78;77.04;102359.22;2044526;29;20810;-71
2022/12/18 03:45:50;;;;;;;20.10;5.72;;;;;;;-0.75;77.07;102364.19;2044526;29;20658;-71
2022/12/18 03:47:17;;;;;;;21.47;7.30;;;;;;;-0.73;77.17;102363.00;2037013;29;20055;-71
2022/12/18 03:48:46;;;;;;;17.02;6.30;;;;;;;-0.71;77.15;102371.63;2041316;29;20676;-71
2022/12/18 03:49:58;;;;;;;;;;;;;;;-0.70;76.84;102367.97;2036318;29;20052;-71
2022/12/18 03:51:22;;;;;;;17.07;6.37;;;;;;;-0.63;77.26;102369.97;2037963;29;19929;-71
2022/12/18 03:52:35;;;;;;;15.97;5.63;;;;;;;-0.58;76.67;102378.25;2032527;29;20300;-71
2022/12/18 03:53:49;;;;;;;19.67;5.77;;;;;;;-0.63;76.32;102377.91;2036073;29;20303;-71
2022/12/18 03:54:56;;;;;;;18.50;6.33;;;;;;;-0.67;76.65;102371.28;2036759;29;20334;-71
2022/12/18 03:56:02;;;;;;;16.87;5.97;;;;;;;-0.74;76.77;102374.56;2030248;29;20767;-70
2022/12/18 03:57:13;;;;;;;;;;;;;;;-0.79;76.65;102373.38;2023116;29;20301;-69
2022/12/18 03:58:23;;;;;;;15.80;5.95;;;;;;;-0.84;76.41;102379.16;2023321;29;19915;-69
2022/12/18 03:59:44;;;;;;;20.53;5.63;;;;;;;-0.84;76.67;102376.53;2040086;29;20051;-69
2022/12/18 04:00:56;;;;;;;18.43;6.23;;;;;;;-0.80;76.79;102372.56;2036251;29;20299;-70
2022/12/18 04:02:01;;;;;;;17.47;5.70;;;;;;;-0.81;76.64;102378.03;2030101;29;20296;-69
2022/12/18 04:03:08;;;;;;;21.77;5.90;;;;;;;-0.85;76.67;102374.88;2021764;29;20301;-69
2022/12/18 04:04:19;;;;;;;19.83;6.10;;;;;;;-0.88;76.56;102374.34;2032067;29;20300;-69
2022/12/18 04:05:25;;;;;;;20.43;6.50;;;;;;;-0.84;76.66;102375.69;2036384;29;20295;-69
2022/12/18 04:06:29;;;;;;;22.50;6.80;;;;;;;-0.84;76.61;102381.81;2029807;29;20676;-68
2022/12/18 04:07:33;;;;;;;17.67;6.23;;;;;;;-0.86;76.76;102377.66;2029600;29;20299;-68
2022/12/18 04:08:36;;;;;;;14.97;5.87;;;;;;;-0.90;76.70;102377.16;2022262;29;22378;-68
2022/12/18 04:09:44;;;;;;;20.97;6.00;;;;;;;-0.94;76.29;102381.09;2029242;29;20300;-68
2022/12/18 04:10:51;;;;;;;;;;;;;;;-0.93;76.54;102385.38;2038186;29;20391;-69
2022/12/18 04:11:53;;;;;;;13.57;5.70;;;;;;;-0.94;76.60;102381.91;2036686;29;19918;-69
2022/12/18 04:13:02;;;;;;;18.27;5.50;;;;;;;-0.94;76.80;102389.03;2037237;29;20304;-69
2022/12/18 04:14:05;;;;;;;18.02;6.90;;;;;;;-0.95;76.72;102385.56;2029210;29;20633;-69
2022/12/18 04:15:09;;;;;;;17.77;5.57;;;;;;;-0.94;76.57;102381.09;2020420;29;20055;-69
2022/12/18 04:16:11;;;;;;;15.93;5.57;;;;;;;-0.98;76.78;102385.00;2029604;29;20830;-69
2022/12/18 04:17:17;;;;;;;17.37;6.30;;;;;;;-1.02;76.74;102388.97;2037677;29;20303;-69
2022/12/18 04:18:22;;;;;;;18.20;5.53;;;;;;;-1.01;76.63;102388.81;2037213;29;20302;-69
2022/12/18 04:19:27;;;;;;;15.50;5.20;;;;;;;-1.06;76.43;102390.28;2021724;29;20302;-69
2022/12/18 04:20:34;;;;;;;15.43;5.43;;;;;;;-1.06;76.56;102399.00;2029890;29;20295;-68
2022/12/18 04:21:37;;;;;;;13.93;5.23;;;;;;;-1.00;76.92;102395.75;2043705;29;20303;-69
2022/12/18 04:22:42;;;;;;;19.03;5.73;;;;;;;-0.97;77.11;102397.25;2033042;29;20849;-69
2022/12/18 04:23:45;;;;;;;16.50;5.97;;;;;;;-0.95;76.91;102396.13;2024931;29;20315;-69
2022/12/18 04:24:48;;;;;;;17.63;6.10;;;;;;;-0.90;77.15;102385.06;2029223;29;20303;-69
2022/12/18 04:26:02;;;;;;;13.83;5.63;;;;;;;-0.89;76.84;102389.34;2022487;29;20320;-69
2022/12/18 04:27:47;;;;;;;18.03;5.90;;;;;;;-0.85;76.87;102385.44;2040270;29;20876;-69
2022/12/18 04:28:49;;;;;;;16.80;5.47;;;;;;;-0.85;76.87;102388.06;2045492;29;20298;-69
2022/12/18 04:29:57;;;;;;;16.37;5.57;;;;;;;-0.80;76.65;102387.59;2036791;29;20817;-69
2022/12/18 04:30:59;;;;;;;15.77;5.77;;;;;;;-0.76;77.00;102395.06;2036818;29;20304;-69
2022/12/18 04:32:01;;;;;;;15.47;5.77;;;;;;;-0.73;76.85;102400.00;2028742;29;20304;-69
2022/12/18 04:33:08;;;;;;;18.30;5.70;;;;;;;-0.74;76.38;102397.53;2029232;29;20311;-70
2022/12/18 04:34:16;;;;;;;15.73;5.60;;;;;;;-0.77;76.54;102397.84;2044492;29;20295;-69
2022/12/18 04:35:25;;;;;;;19.30;6.10;;;;;;;-0.83;76.22;102394.00;2037866;29;20302;-69
2022/12/18 04:36:28;;;;;;;16.90;6.17;;;;;;;-0.82;76.55;102400.13;2037709;29;20810;-68
2022/12/18 04:37:33;;;;;;;16.47;5.50;;;;;;;-0.84;76.28;102402.09;2044580;28;20298;-69
2022/12/18 04:38:37;;;;;;;18.00;5.70;;;;;;;-0.83;76.26;102401.94;2036534;29;22016;-70
2022/12/18 04:39:46;;;;;;;14.30;5.30;;;;;;;-0.75;76.43;102401.97;2030186;29;20641;-69
2022/12/18 04:40:56;;;;;;;13.40;5.50;;;;;;;-0.68;76.62;102406.63;2030268;29;20692;-69
2022/12/18 04:42:02;;;;;;;17.80;5.53;;;;;;;-0.64;76.68;102406.16;2029859;29;20807;-71
2022/12/18 04:43:05;;;;;;;17.87;6.40;;;;;;;-0.65;76.47;102408.97;2036623;29;20299;-70
2022/12/18 04:44:10;;;;;;;15.03;5.57;;;;;;;-0.64;76.09;102413.25;2044108;29;20299;-70
2022/12/18 04:45:12;;;;;;;15.10;5.67;;;;;;;-0.62;75.91;102416.56;2044552;29;20682;-70
2022/12/18 04:46:13;;;;;;;18.47;5.67;;;;;;;-0.65;75.98;102411.59;2036171;29;20306;-70
2022/12/18 04:47:17;;;;;;;16.23;5.77;;;;;;;-0.72;75.99;102412.22;2036729;29;20299;-71
2022/12/18 04:48:22;;;;;;;14.20;4.70;;;;;;;-0.70;75.58;102415.53;2036556;29;20302;-71
2022/12/18 04:49:24;;;;;;;11.57;4.47;;;;;;;-0.79;75.84;102416.50;2029402;29;20292;-70
2022/12/18 04:50:26;;;;;;;18.43;5.53;;;;;;;-0.83;75.60;102423.06;2021586;29;20307;-70
2022/12/18 04:51:28;;;;;;;16.33;5.23;;;;;;;-0.85;75.74;102422.41;2036754;29;20636;-71
2022/12/18 04:52:30;;;;;;;19.13;6.00;;;;;;;-0.80;76.11;102421.91;2036670;29;20302;-70
2022/12/18 04:53:35;;;;;;;15.43;5.20;;;;;;;-0.76;76.24;102421.47;2021250;29;20839;-70
2022/12/18 04:54:38;;;;;;;18.20;5.60;;;;;;;-0.70;75.96;102420.81;2025736;29;20304;-70
2022/12/18 04:55:40;;;;;;;17.87;5.77;;;;;;;-0.67;76.16;102418.84;2044286;29;20302;-71
2022/12/18 04:56:45;;;;;;;18.10;6.00;;;;;;;-0.64;76.00;102414.06;2036555;29;20310;-70
2022/12/18 04:57:51;;;;;;;19.50;5.73;;;;;;;-0.66;75.74;102407.28;2037391;29;20298;-70
2022/12/18 04:58:56;;;;;;;17.43;5.70;;;;;;;-0.65;75.79;102417.72;2036739;29;20304;-70
2022/12/18 04:59:58;;;;;;;15.03;5.57;;;;;;;-0.64;75.74;102413.25;2037085;29;20295;-71
2022/12/18 05:01:01;;;;;;;16.43;5.40;;;;;;;-0.62;75.69;102420.03;2044579;29;20299;-70
2022/12/18 05:02:06;;;;;;;13.13;5.43;;;;;;;-0.61;75.82;102418.22;2044120;29;20294;-70
2022/12/18 05:03:08;;;;;;;11.77;5.23;;;;;;;-0.59;75.56;102416.25;2044725;29;20656;-70
2022/12/18 05:04:11;;;;;;;16.77;5.30;;;;;;;-0.58;75.37;102421.38;2044565;29;20306;-70
2022/12/18 05:05:15;;;;;;;12.27;4.87;;;;;;;-0.58;75.47;102421.38;2045014;29;20295;-70
2022/12/18 05:06:17;;;;;;;13.93;4.80;;;;;;;-0.60;75.29;102423.34;2044231;29;20295;-70
2022/12/18 05:07:24;;;;;;;13.23;5.80;;;;;;;-0.62;74.85;102424.50;2044261;28;20295;-70
2022/12/18 05:08:26;;;;;;;12.77;4.07;;;;;;;-0.65;74.90;102427.44;2035352;29;20322;-70
2022/12/18 05:09:28;;;;;;;14.03;4.50;;;;;;;-0.68;74.70;102433.06;2036544;29;20326;-70
2022/12/18 05:10:36;;;;;;;12.10;3.97;;;;;;;-0.70;74.51;102433.19;2043719;29;20310;-70
2022/12/18 05:11:38;;;;;;;12.77;5.13;;;;;;;-0.72;74.55;102433.38;2044116;29;20303;-70
2022/12/18 05:12:57;;;;;;;12.87;4.53;;;;;;;-0.72;74.45;102430.72;2036413;29;20299;-70
2022/12/18 05:13:59;;;;;;;9.07;3.85;;;;;;;-0.68;74.69;102440.97;2038735;29;20307;-70
2022/12/18 05:15:02;;;;;;;10.37;3.90;;;;;;;-0.67;74.52;102442.63;2037069;29;20042;-70